createdAt,value
2023-02-17T00:01:22.133Z,11.33
2023-02-17T00:06:28.512Z,10.40
2023-02-17T00:11:32.389Z,10.53
2023-02-17T00:16:37.476Z,10.20
2023-02-17T00:21:40.887Z,10.10
2023-02-17T00:26:44.550Z,10.50
2023-02-17T00:31:49.696Z,8.97
2023-02-17T00:36:53.251Z,9.97
2023-02-17T00:41:56.595Z,9.23
2023-02-17T00:47:01.393Z,9.20
2023-02-17T00:52:04.881Z,9.47
2023-02-17T00:57:08.241Z,9.27
2023-02-17T01:02:13.124Z,9.13
2023-02-17T01:07:16.503Z,9.57
2023-02-17T01:12:20.167Z,9.67
2023-02-17T01:17:25.073Z,9.07
2023-02-17T01:22:28.790Z,8.90
2023-02-17T01:27:32.276Z,8.27
2023-02-17T01:32:38.293Z,8.27
2023-02-17T01:37:41.982Z,6.87
2023-02-17T01:42:46.110Z,7.53
2023-02-17T01:47:55.785Z,7.28
2023-02-17T01:53:02.135Z,7.77
2023-02-17T01:58:08.986Z,7.70
2023-02-17T02:03:15.504Z,7.50
2023-02-17T02:08:18.952Z,8.07
2023-02-17T02:13:22.339Z,8.37
2023-02-17T02:18:55.134Z,8.10
2023-02-17T02:24:07.861Z,9.70
2023-02-17T02:29:33.702Z,9.00
2023-02-17T02:34:43.463Z,7.27
2023-02-17T02:39:50.577Z,7.67
2023-02-17T02:44:53.954Z,7.60
2023-02-17T02:49:58.694Z,7.93
2023-02-17T03:00:21.092Z,8.07
2023-02-17T03:05:32.714Z,7.87
2023-02-17T03:10:36.322Z,9.07
2023-02-17T03:15:39.879Z,8.57
2023-02-17T03:20:50.456Z,8.73
2023-02-17T03:25:53.826Z,8.63
2023-02-17T03:30:57.664Z,9.60
2023-02-17T03:36:02.559Z,6.97
2023-02-17T03:41:06.187Z,7.70
2023-02-17T03:46:12.952Z,8.73
2023-02-17T03:51:20.067Z,8.73
2023-02-17T03:56:23.724Z,9.10
2023-02-17T04:01:27.178Z,8.57
2023-02-17T04:06:32.211Z,9.03
2023-02-17T04:11:35.785Z,7.67
2023-02-17T04:16:39.475Z,8.57
2023-02-17T04:21:44.426Z,8.23
2023-02-17T04:26:47.793Z,9.27
2023-02-17T04:31:51.430Z,8.80
2023-02-17T04:36:56.416Z,8.50
2023-02-17T04:41:59.956Z,8.50
2023-02-17T04:47:03.492Z,8.70
2023-02-17T04:52:08.527Z,8.60
2023-02-17T04:57:11.989Z,8.60
2023-02-17T05:02:15.396Z,9.60
2023-02-17T05:07:20.377Z,9.33
2023-02-17T05:12:23.756Z,9.27
2023-02-17T05:17:27.120Z,8.40
2023-02-17T05:22:32.062Z,8.33
2023-02-17T05:27:35.611Z,8.80
2023-02-17T05:32:39.129Z,8.50
2023-02-17T05:37:43.851Z,8.20
2023-02-17T05:47:50.587Z,9.53
2023-02-17T05:52:55.488Z,8.07
2023-02-17T05:57:58.920Z,9.35
2023-02-17T06:03:02.444Z,9.03
2023-02-17T06:08:07.524Z,9.80
2023-02-17T06:13:11.208Z,8.23
2023-02-17T06:18:15.107Z,9.45
2023-02-17T06:23:20.117Z,8.67
2023-02-17T06:28:23.647Z,9.00
2023-02-17T06:33:27.129Z,9.65
2023-02-17T06:38:32.257Z,10.00
2023-02-17T06:43:35.836Z,9.67
2023-02-17T06:48:39.431Z,8.47
2023-02-17T06:53:44.345Z,9.83
2023-02-17T06:58:48.099Z,9.37
2023-02-17T07:03:51.625Z,8.70
2023-02-17T07:08:56.874Z,9.45
2023-02-17T07:14:00.409Z,9.40
2023-02-17T07:19:04.123Z,10.17
2023-02-17T07:24:10.241Z,9.27
2023-02-17T07:34:17.187Z,9.93
2023-02-17T07:39:22.198Z,9.40
2023-02-17T07:44:25.574Z,10.25
2023-02-17T07:49:29.536Z,10.75
2023-02-17T07:54:34.519Z,9.80
2023-02-17T08:04:41.119Z,9.90
2023-02-17T08:10:03.747Z,11.43
2023-02-17T08:15:08.971Z,10.68
2023-02-17T08:20:15.988Z,11.35
2023-02-17T08:25:20.887Z,11.55
2023-02-17T08:30:24.419Z,11.25
2023-02-17T08:35:29.673Z,10.07
2023-02-17T08:40:34.502Z,12.20
2023-02-17T08:50:41.427Z,11.23
2023-02-17T08:55:49.456Z,11.20
2023-02-17T09:00:53.362Z,12.00
2023-02-17T09:05:57.083Z,12.35
2023-02-17T09:11:02.360Z,12.48
2023-02-17T09:16:06.800Z,12.57
2023-02-17T09:21:12.280Z,12.43
2023-02-17T09:26:19.375Z,13.57
2023-02-17T09:31:24.937Z,12.75
2023-02-17T09:36:30.712Z,13.70
2023-02-17T09:41:40.774Z,14.07
2023-02-17T09:47:00.924Z,13.07
2023-02-17T09:52:12.324Z,13.48
2023-02-17T09:57:22.170Z,13.02
2023-02-17T10:02:31.186Z,14.30
2023-02-17T10:07:39.566Z,14.00
2023-02-17T10:12:48.660Z,13.45
2023-02-17T10:17:58.597Z,13.40
2023-02-17T10:23:07.362Z,14.40
2023-02-17T10:28:19.819Z,14.93
2023-02-17T10:33:30.214Z,14.38
2023-02-17T10:38:46.096Z,15.00
2023-02-17T10:43:52.291Z,14.00
2023-02-17T10:48:57.280Z,14.90
2023-02-17T10:54:06.795Z,14.43
2023-02-17T10:59:18.258Z,14.40
2023-02-17T11:04:21.691Z,13.63
2023-02-17T11:09:28.972Z,13.32
2023-02-17T11:14:37.808Z,14.73
2023-02-17T11:19:41.553Z,13.50
2023-02-17T11:24:45.144Z,15.30
2023-02-17T11:29:49.957Z,14.00
2023-02-17T11:40:01.572Z,12.82
2023-02-17T11:45:19.966Z,11.03
2023-02-17T11:50:41.452Z,11.43
2023-02-17T11:55:55.837Z,11.88
2023-02-17T12:01:07.411Z,11.15
2023-02-17T12:06:16.147Z,12.48
2023-02-17T12:11:30.085Z,11.68
2023-02-17T12:16:47.104Z,13.13
2023-02-17T12:22:03.424Z,12.05
2023-02-17T12:27:17.368Z,10.38
2023-02-17T12:32:36.242Z,11.20
2023-02-17T12:37:48.488Z,12.90
2023-02-17T12:42:58.153Z,12.53
2023-02-17T12:48:07.121Z,12.40
2023-02-17T12:53:16.788Z,11.45
2023-02-17T12:58:23.382Z,13.18
2023-02-17T13:03:31.335Z,12.95
2023-02-17T13:08:42.554Z,12.43
2023-02-17T13:13:46.252Z,13.27
2023-02-17T13:18:53.144Z,12.57
2023-02-17T13:24:01.890Z,13.13
2023-02-17T13:29:12.699Z,12.10
2023-02-17T13:34:28.431Z,12.65
2023-02-17T13:39:35.388Z,13.07
2023-02-17T13:44:42.010Z,12.73
2023-02-17T13:49:53.944Z,13.55
2023-02-17T13:54:59.688Z,12.07
2023-02-17T14:00:11.697Z,13.85
2023-02-17T14:05:21.121Z,13.57
2023-02-17T14:10:28.184Z,13.88
2023-02-17T14:15:31.771Z,14.20
2023-02-17T14:20:37.966Z,15.00
2023-02-17T14:25:45.031Z,15.07
2023-02-17T14:30:49.132Z,14.47
2023-02-17T14:35:56.929Z,15.50
2023-02-17T14:41:01.412Z,15.43
2023-02-17T14:46:05.780Z,14.73
2023-02-17T14:51:14.717Z,14.70
2023-02-17T14:56:23.989Z,15.73
2023-02-17T15:01:27.968Z,15.35
2023-02-17T15:06:42.185Z,14.27
2023-02-17T15:11:49.043Z,14.82
2023-02-17T15:16:52.472Z,15.18
2023-02-17T15:22:01.432Z,15.33
2023-02-17T15:27:06.133Z,16.10
2023-02-17T15:32:18.337Z,15.35
2023-02-17T15:37:23.211Z,16.07
2023-02-17T15:47:32.784Z,16.15
2023-02-17T15:52:37.561Z,15.60
2023-02-17T16:02:45.744Z,14.77
2023-02-17T16:07:50.815Z,14.63
2023-02-17T16:12:56.840Z,14.80
2023-02-17T16:18:00.828Z,11.63
2023-02-17T16:23:05.598Z,13.30
2023-02-17T16:33:18.254Z,12.73
2023-02-17T16:38:24.979Z,13.65
2023-02-17T16:43:30.820Z,12.90
2023-02-17T16:48:37.400Z,10.93
2023-02-17T16:53:42.271Z,11.67
2023-02-17T16:58:46.604Z,10.70
2023-02-17T17:03:50.099Z,12.38
2023-02-17T17:08:55.510Z,11.80
2023-02-17T17:13:59.223Z,12.27
2023-02-17T17:19:03.486Z,12.83
2023-02-17T17:24:08.343Z,13.57
2023-02-17T17:29:13.691Z,12.13
2023-02-17T17:34:17.068Z,13.90
2023-02-17T17:39:24.621Z,14.87
2023-02-17T17:44:28.751Z,13.97
2023-02-17T17:49:32.240Z,14.70
2023-02-17T17:54:37.192Z,15.03
2023-02-17T17:59:40.567Z,13.77
2023-02-17T18:04:44.328Z,14.33
2023-02-17T18:09:49.379Z,14.83
2023-02-17T18:14:55.744Z,14.33
2023-02-17T18:19:59.455Z,15.10
2023-02-17T18:25:04.675Z,15.57
2023-02-17T18:30:10.672Z,15.27
2023-02-17T18:35:15.207Z,16.43
2023-02-17T18:40:21.714Z,18.17
2023-02-17T18:45:25.724Z,18.70
2023-02-17T18:50:33.197Z,18.98
2023-02-17T18:55:39.773Z,18.27
2023-02-17T19:00:43.139Z,17.33
2023-02-17T19:05:46.695Z,17.80
2023-02-17T19:10:52.118Z,17.83
2023-02-17T19:15:55.785Z,17.73
2023-02-17T19:20:59.228Z,16.63
2023-02-17T19:26:05.623Z,15.47
2023-02-17T19:31:11.554Z,16.43
2023-02-17T19:36:17.794Z,17.40
2023-02-17T19:41:23.012Z,17.83
2023-02-17T19:46:26.618Z,17.23
2023-02-17T19:51:29.962Z,17.90
2023-02-17T19:56:36.596Z,19.53
2023-02-17T20:01:42.937Z,19.80
2023-02-17T20:06:48.736Z,16.83
2023-02-17T20:11:53.744Z,15.90
2023-02-17T20:16:57.160Z,15.90
2023-02-17T20:22:01.367Z,16.33
2023-02-17T20:27:06.379Z,16.25
2023-02-17T20:32:09.859Z,15.97
2023-02-17T20:37:13.533Z,13.03
2023-02-17T20:42:18.479Z,17.83
2023-02-17T20:47:21.980Z,16.33
2023-02-17T20:52:25.729Z,18.45
2023-02-17T20:57:30.689Z,17.17
2023-02-17T21:02:34.247Z,16.17
2023-02-17T21:07:37.826Z,15.77
2023-02-17T21:12:42.752Z,14.53
2023-02-17T21:17:46.684Z,15.03
2023-02-17T21:22:50.155Z,14.43
2023-02-17T21:27:54.933Z,16.37
2023-02-17T21:32:58.471Z,16.10
2023-02-17T21:38:01.898Z,15.50
2023-02-17T21:43:23.904Z,16.23
2023-02-17T21:48:27.596Z,15.67
2023-02-17T21:53:30.944Z,16.10
2023-02-17T21:58:36.467Z,17.40
2023-02-17T22:03:39.876Z,17.83
2023-02-17T22:08:43.382Z,16.20
2023-02-17T22:13:49.238Z,15.90
2023-02-17T22:18:53.187Z,17.30
2023-02-17T22:23:56.608Z,17.17
2023-02-17T22:29:01.494Z,19.07
2023-02-17T22:34:07.276Z,18.87
2023-02-17T22:39:11.036Z,20.03
2023-02-17T22:44:15.911Z,19.02
2023-02-17T22:49:19.457Z,16.23
2023-02-17T22:54:22.948Z,20.40
2023-02-17T22:59:27.952Z,17.40
2023-02-17T23:04:31.541Z,20.97
2023-02-17T23:09:35.093Z,21.13
2023-02-17T23:14:41.338Z,15.67
2023-02-17T23:19:44.855Z,19.00
2023-02-17T23:24:48.882Z,24.13
2023-02-17T23:29:53.781Z,23.48
2023-02-17T23:34:57.185Z,19.80
2023-02-17T23:40:00.529Z,20.60
2023-02-17T23:45:05.841Z,17.67
2023-02-17T23:50:27.327Z,19.27
2023-02-17T23:55:30.684Z,19.03
